Whitesboro, New York
Current Conditions -  °F | °C
As of 4:53 AM on Friday 31 Oct 2014 (Local Time) from KRME Reporting Station
Clear Clear  
Wind Chill: 30°   Ceiling: Unl
Heat Index: 30°   Visibility: 10mi
Dew Point: 29°   Wind: 0mph
Humidity: 96%   Direction: NA
Pressure: 30.03"   Gusts: NA
Location:  43.12°N, 75.29°W
Report Text: KRME 310853Z AUTO 00000KT 10SM CLR M01/M02 A3003 RMK AO2 SLP172 T10111017 58003
Loading
Personal Weather Stations






























Interactive Weather Map
Tropical Storm Tracking
New forecast layout! Learn more

10-Day Weather Forecast

Advertisements
Track Severe Weather on mobile